Aviation Digital Data Service (ADDS)

Output produced by METARs form (2319 UTC 24 May 2018)
found at http://aviationweather.gov/adds/metars/
 
KISO 241720Z 2418/2518 06005KT P6SM SCT060 
     FM242000 08010KT P6SM FEW090 
     FM250000 VRB03KT P6SM SKC AMD LTD TO CLD VIS AND WIND